sensor_id;sensor_type;location;lat;lon;timestamp;temperature;humidity
12967;DHT22;6548;49.996;8.238;2023-03-01T00:01:49;0.30;99.90
12967;DHT22;6548;49.996;8.238;2023-03-01T00:04:15;0.30;99.90
12967;DHT22;6548;49.996;8.238;2023-03-01T00:06:42;0.30;99.90
12967;DHT22;6548;49.996;8.238;2023-03-01T00:09:08;0.30;99.90
12967;DHT22;6548;49.996;8.238;2023-03-01T00:11:34;0.30;99.90
12967;DHT22;6548;49.996;8.238;2023-03-01T00:14:01;0.30;99.90
12967;DHT22;6548;49.996;8.238;2023-03-01T00:16:31;0.20;99.90
12967;DHT22;6548;49.996;8.238;2023-03-01T00:18:58;0.20;99.90
12967;DHT22;6548;49.996;8.238;2023-03-01T00:21:25;0.30;99.90
12967;DHT22;6548;49.996;8.238;2023-03-01T00:23:51;0.20;99.90
12967;DHT22;6548;49.996;8.238;2023-03-01T00:26:18;0.20;99.90
12967;DHT22;6548;49.996;8.238;2023-03-01T00:28:45;0.10;99.90
12967;DHT22;6548;49.996;8.238;2023-03-01T00:31:21;0.20;99.90
12967;DHT22;6548;49.996;8.238;2023-03-01T00:33:47;0.20;99.90
12967;DHT22;6548;49.996;8.238;2023-03-01T00:36:14;0.30;99.90
12967;DHT22;6548;49.996;8.238;2023-03-01T00:38:43;0.20;99.90
12967;DHT22;6548;49.996;8.238;2023-03-01T00:41:16;0.20;99.90
12967;DHT22;6548;49.996;8.238;2023-03-01T00:43:44;0.20;99.90
12967;DHT22;6548;49.996;8.238;2023-03-01T00:46:12;0.30;99.90
12967;DHT22;6548;49.996;8.238;2023-03-01T00:48:39;0.30;99.90
12967;DHT22;6548;49.996;8.238;2023-03-01T00:51:10;0.20;99.90
12967;DHT22;6548;49.996;8.238;2023-03-01T00:53:36;0.30;99.90
12967;DHT22;6548;49.996;8.238;2023-03-01T00:56:03;0.30;99.90
12967;DHT22;6548;49.996;8.238;2023-03-01T00:58:29;0.30;99.90
12967;DHT22;6548;49.996;8.238;2023-03-01T01:00:55;0.30;99.90
12967;DHT22;6548;49.996;8.238;2023-03-01T01:03:21;0.30;99.90
12967;DHT22;6548;49.996;8.238;2023-03-01T01:05:47;0.30;99.90
12967;DHT22;6548;49.996;8.238;2023-03-01T01:08:13;0.20;99.90
12967;DHT22;6548;49.996;8.238;2023-03-01T01:10:38;0.20;99.90
12967;DHT22;6548;49.996;8.238;2023-03-01T01:13:04;0.20;99.90
12967;DHT22;6548;49.996;8.238;2023-03-01T01:15:33;0.10;99.90
12967;DHT22;6548;49.996;8.238;2023-03-01T01:17:59;0.00;99.90
12967;DHT22;6548;49.996;8.238;2023-03-01T01:20:24;0.00;99.90
12967;DHT22;6548;49.996;8.238;2023-03-01T01:22:50;0.00;99.90
12967;DHT22;6548;49.996;8.238;2023-03-01T01:25:16;0.10;99.90
12967;DHT22;6548;49.996;8.238;2023-03-01T01:27:42;0.10;99.90
12967;DHT22;6548;49.996;8.238;2023-03-01T01:30:08;0.00;99.90
12967;DHT22;6548;49.996;8.238;2023-03-01T01:32:33;0.20;99.90
12967;DHT22;6548;49.996;8.238;2023-03-01T01:34:59;0.10;99.90
12967;DHT22;6548;49.996;8.238;2023-03-01T01:37:24;0.10;99.90
12967;DHT22;6548;49.996;8.238;2023-03-01T01:39:57;0.10;99.90
12967;DHT22;6548;49.996;8.238;2023-03-01T01:42:23;0.00;99.90
12967;DHT22;6548;49.996;8.238;2023-03-01T01:47:50;0.00;99.90
12967;DHT22;6548;49.996;8.238;2023-03-01T01:50:17;0.00;99.90
12967;DHT22;6548;49.996;8.238;2023-03-01T01:52:45;0.10;99.90
12967;DHT22;6548;49.996;8.238;2023-03-01T01:55:15;0.10;99.90
12967;DHT22;6548;49.996;8.238;2023-03-01T01:57:45;0.10;99.90
12967;DHT22;6548;49.996;8.238;2023-03-01T02:00:18;0.00;99.90
12967;DHT22;6548;49.996;8.238;2023-03-01T02:02:46;0.10;99.90
12967;DHT22;6548;49.996;8.238;2023-03-01T02:05:20;0.10;99.90
12967;DHT22;6548;49.996;8.238;2023-03-01T02:07:49;0.20;99.90
12967;DHT22;6548;49.996;8.238;2023-03-01T02:10:15;0.10;99.90
12967;DHT22;6548;49.996;8.238;2023-03-01T02:12:41;0.10;99.90
12967;DHT22;6548;49.996;8.238;2023-03-01T02:15:08;0.10;99.90
12967;DHT22;6548;49.996;8.238;2023-03-01T02:17:34;0.20;99.90
12967;DHT22;6548;49.996;8.238;2023-03-01T02:20:25;0.20;99.90
12967;DHT22;6548;49.996;8.238;2023-03-01T02:22:53;0.20;99.90
12967;DHT22;6548;49.996;8.238;2023-03-01T02:30:38;0.30;99.90
12967;DHT22;6548;49.996;8.238;2023-03-01T02:33:25;0.30;99.90
12967;DHT22;6548;49.996;8.238;2023-03-01T02:35:52;0.30;99.90
12967;DHT22;6548;49.996;8.238;2023-03-01T02:38:19;0.30;99.90
12967;DHT22;6548;49.996;8.238;2023-03-01T02:40:45;0.40;99.90
12967;DHT22;6548;49.996;8.238;2023-03-01T02:43:12;0.40;99.90
12967;DHT22;6548;49.996;8.238;2023-03-01T02:45:47;0.40;99.90
12967;DHT22;6548;49.996;8.238;2023-03-01T02:48:13;0.30;99.90
12967;DHT22;6548;49.996;8.238;2023-03-01T02:51:06;0.40;99.90
12967;DHT22;6548;49.996;8.238;2023-03-01T02:54:04;0.40;99.90
12967;DHT22;6548;49.996;8.238;2023-03-01T02:56:33;0.50;99.90
12967;DHT22;6548;49.996;8.238;2023-03-01T02:59:00;0.50;99.90
12967;DHT22;6548;49.996;8.238;2023-03-01T03:01:26;0.40;99.90
12967;DHT22;6548;49.996;8.238;2023-03-01T03:04:05;0.50;99.90
12967;DHT22;6548;49.996;8.238;2023-03-01T03:06:31;0.40;99.90
12967;DHT22;6548;49.996;8.238;2023-03-01T03:08:57;0.40;99.90
12967;DHT22;6548;49.996;8.238;2023-03-01T03:11:22;0.40;99.90
12967;DHT22;6548;49.996;8.238;2023-03-01T03:13:48;0.40;99.90
12967;DHT22;6548;49.996;8.238;2023-03-01T03:16:14;0.40;99.90
12967;DHT22;6548;49.996;8.238;2023-03-01T03:18:40;0.50;99.90
12967;DHT22;6548;49.996;8.238;2023-03-01T03:21:11;0.40;99.90
12967;DHT22;6548;49.996;8.238;2023-03-01T03:23:37;0.40;99.90
12967;DHT22;6548;49.996;8.238;2023-03-01T03:26:03;0.40;99.90
12967;DHT22;6548;49.996;8.238;2023-03-01T03:28:30;0.40;99.90
12967;DHT22;6548;49.996;8.238;2023-03-01T03:30:56;0.40;99.90
12967;DHT22;6548;49.996;8.238;2023-03-01T03:33:22;0.30;99.90
12967;DHT22;6548;49.996;8.238;2023-03-01T03:35:48;0.30;99.90
12967;DHT22;6548;49.996;8.238;2023-03-01T03:38:17;0.40;99.90
12967;DHT22;6548;49.996;8.238;2023-03-01T03:40:52;0.30;99.90
12967;DHT22;6548;49.996;8.238;2023-03-01T03:43:22;0.30;99.90
12967;DHT22;6548;49.996;8.238;2023-03-01T03:45:50;0.20;99.90
12967;DHT22;6548;49.996;8.238;2023-03-01T03:48:16;0.20;99.90
12967;DHT22;6548;49.996;8.238;2023-03-01T03:50:47;0.20;99.90
12967;DHT22;6548;49.996;8.238;2023-03-01T03:53:13;0.20;99.90
12967;DHT22;6548;49.996;8.238;2023-03-01T03:55:39;0.20;99.90
12967;DHT22;6548;49.996;8.238;2023-03-01T03:58:07;0.20;99.90
12967;DHT22;6548;49.996;8.238;2023-03-01T04:00:35;0.20;99.90
12967;DHT22;6548;49.996;8.238;2023-03-01T04:03:01;0.20;99.90
12967;DHT22;6548;49.996;8.238;2023-03-01T04:05:27;0.20;99.90
12967;DHT22;6548;49.996;8.238;2023-03-01T04:07:52;0.30;99.90
12967;DHT22;6548;49.996;8.238;2023-03-01T04:10:27;0.20;99.90
12967;DHT22;6548;49.996;8.238;2023-03-01T04:12:53;0.30;99.90
12967;DHT22;6548;49.996;8.238;2023-03-01T04:15:21;0.40;99.90
12967;DHT22;6548;49.996;8.238;2023-03-01T04:17:50;0.20;99.90
12967;DHT22;6548;49.996;8.238;2023-03-01T04:20:19;0.20;99.90
12967;DHT22;6548;49.996;8.238;2023-03-01T04:22:51;0.20;99.90
12967;DHT22;6548;49.996;8.238;2023-03-01T04:25:17;0.20;99.90
12967;DHT22;6548;49.996;8.238;2023-03-01T04:27:42;0.20;99.90
12967;DHT22;6548;49.996;8.238;2023-03-01T04:30:08;0.20;99.90
12967;DHT22;6548;49.996;8.238;2023-03-01T04:32:34;0.20;99.90
12967;DHT22;6548;49.996;8.238;2023-03-01T04:35:00;0.20;99.90
12967;DHT22;6548;49.996;8.238;2023-03-01T04:37:26;0.20;99.90
12967;DHT22;6548;49.996;8.238;2023-03-01T04:39:51;0.20;99.90
12967;DHT22;6548;49.996;8.238;2023-03-01T04:42:17;0.20;99.90
12967;DHT22;6548;49.996;8.238;2023-03-01T04:44:43;0.20;99.90
12967;DHT22;6548;49.996;8.238;2023-03-01T04:47:09;0.10;99.90
12967;DHT22;6548;49.996;8.238;2023-03-01T04:49:35;0.20;99.90
12967;DHT22;6548;49.996;8.238;2023-03-01T04:52:00;0.10;99.90
12967;DHT22;6548;49.996;8.238;2023-03-01T04:54:34;0.10;99.90
12967;DHT22;6548;49.996;8.238;2023-03-01T04:57:00;0.10;99.90
12967;DHT22;6548;49.996;8.238;2023-03-01T04:59:26;0.10;99.90
12967;DHT22;6548;49.996;8.238;2023-03-01T05:02:08;0.00;99.90
12967;DHT22;6548;49.996;8.238;2023-03-01T05:04:34;0.10;99.90
12967;DHT22;6548;49.996;8.238;2023-03-01T05:06:59;0.10;99.90
12967;DHT22;6548;49.996;8.238;2023-03-01T05:09:25;0.10;99.90
12967;DHT22;6548;49.996;8.238;2023-03-01T05:11:50;0.00;99.90
12967;DHT22;6548;49.996;8.238;2023-03-01T05:14:16;0.00;99.90
12967;DHT22;6548;49.996;8.238;2023-03-01T05:16:42;-0.10;99.90
12967;DHT22;6548;49.996;8.238;2023-03-01T05:19:08;-0.10;99.90
12967;DHT22;6548;49.996;8.238;2023-03-01T05:21:41;-0.10;99.90
12967;DHT22;6548;49.996;8.238;2023-03-01T05:24:25;0.00;99.90
12967;DHT22;6548;49.996;8.238;2023-03-01T05:26:52;-0.10;99.90
12967;DHT22;6548;49.996;8.238;2023-03-01T05:29:19;0.00;99.90
12967;DHT22;6548;49.996;8.238;2023-03-01T05:31:56;-0.10;99.90
12967;DHT22;6548;49.996;8.238;2023-03-01T05:34:32;0.00;99.90
12967;DHT22;6548;49.996;8.238;2023-03-01T05:36:59;-0.10;99.90
12967;DHT22;6548;49.996;8.238;2023-03-01T05:39:26;-0.10;99.90
12967;DHT22;6548;49.996;8.238;2023-03-01T05:41:53;-0.10;99.90
12967;DHT22;6548;49.996;8.238;2023-03-01T05:44:19;-0.10;99.90
12967;DHT22;6548;49.996;8.238;2023-03-01T05:46:45;0.00;99.90
12967;DHT22;6548;49.996;8.238;2023-03-01T05:49:12;-0.10;99.90
12967;DHT22;6548;49.996;8.238;2023-03-01T05:51:39;-0.10;99.90
12967;DHT22;6548;49.996;8.238;2023-03-01T05:54:04;-0.10;99.90
12967;DHT22;6548;49.996;8.238;2023-03-01T05:56:32;-0.10;99.90
12967;DHT22;6548;49.996;8.238;2023-03-01T05:58:58;-0.20;99.90
12967;DHT22;6548;49.996;8.238;2023-03-01T06:01:24;-0.10;99.90
12967;DHT22;6548;49.996;8.238;2023-03-01T06:03:49;0.00;99.90
12967;DHT22;6548;49.996;8.238;2023-03-01T06:06:15;-0.40;99.90
12967;DHT22;6548;49.996;8.238;2023-03-01T06:08:40;0.00;99.90
12967;DHT22;6548;49.996;8.238;2023-03-01T06:11:06;0.10;99.90
12967;DHT22;6548;49.996;8.238;2023-03-01T06:13:33;0.20;99.90
12967;DHT22;6548;49.996;8.238;2023-03-01T06:15:58;0.20;99.90
12967;DHT22;6548;49.996;8.238;2023-03-01T06:18:24;0.30;99.90
12967;DHT22;6548;49.996;8.238;2023-03-01T06:20:54;0.50;99.90
12967;DHT22;6548;49.996;8.238;2023-03-01T06:23:19;0.50;99.90
12967;DHT22;6548;49.996;8.238;2023-03-01T06:25:45;0.50;99.90
12967;DHT22;6548;49.996;8.238;2023-03-01T06:28:10;0.50;99.90
12967;DHT22;6548;49.996;8.238;2023-03-01T06:30:36;0.60;99.90
12967;DHT22;6548;49.996;8.238;2023-03-01T06:33:01;0.60;99.90
12967;DHT22;6548;49.996;8.238;2023-03-01T06:35:28;0.70;99.90
12967;DHT22;6548;49.996;8.238;2023-03-01T06:37:58;0.70;99.90
12967;DHT22;6548;49.996;8.238;2023-03-01T06:40:24;0.70;99.90
12967;DHT22;6548;49.996;8.238;2023-03-01T06:42:51;0.80;99.90
12967;DHT22;6548;49.996;8.238;2023-03-01T06:45:18;0.90;99.90
12967;DHT22;6548;49.996;8.238;2023-03-01T06:47:44;0.90;99.90
12967;DHT22;6548;49.996;8.238;2023-03-01T06:50:10;1.00;99.90
12967;DHT22;6548;49.996;8.238;2023-03-01T06:52:36;1.00;99.90
12967;DHT22;6548;49.996;8.238;2023-03-01T06:55:02;1.10;99.90
12967;DHT22;6548;49.996;8.238;2023-03-01T06:57:28;1.10;99.90
12967;DHT22;6548;49.996;8.238;2023-03-01T06:59:54;1.20;99.90
12967;DHT22;6548;49.996;8.238;2023-03-01T07:02:20;1.20;99.90
12967;DHT22;6548;49.996;8.238;2023-03-01T07:04:45;1.20;99.90
12967;DHT22;6548;49.996;8.238;2023-03-01T07:07:11;1.30;99.90
12967;DHT22;6548;49.996;8.238;2023-03-01T07:09:37;1.30;99.90
12967;DHT22;6548;49.996;8.238;2023-03-01T07:12:02;1.30;99.90
12967;DHT22;6548;49.996;8.238;2023-03-01T07:14:28;1.60;99.90
12967;DHT22;6548;49.996;8.238;2023-03-01T07:16:57;1.40;99.90
12967;DHT22;6548;49.996;8.238;2023-03-01T07:19:25;1.40;99.90
12967;DHT22;6548;49.996;8.238;2023-03-01T07:21:51;1.50;99.90
12967;DHT22;6548;49.996;8.238;2023-03-01T07:24:16;1.60;99.90
12967;DHT22;6548;49.996;8.238;2023-03-01T07:26:42;1.50;99.90
12967;DHT22;6548;49.996;8.238;2023-03-01T07:29:08;1.60;99.90
12967;DHT22;6548;49.996;8.238;2023-03-01T07:31:35;1.60;99.90
12967;DHT22;6548;49.996;8.238;2023-03-01T07:34:01;1.80;99.90
12967;DHT22;6548;49.996;8.238;2023-03-01T07:36:26;1.80;99.90
12967;DHT22;6548;49.996;8.238;2023-03-01T07:38:52;1.80;99.90
12967;DHT22;6548;49.996;8.238;2023-03-01T07:41:18;1.90;99.90
12967;DHT22;6548;49.996;8.238;2023-03-01T07:43:44;2.10;99.90
12967;DHT22;6548;49.996;8.238;2023-03-01T07:46:10;2.30;99.90
12967;DHT22;6548;49.996;8.238;2023-03-01T07:48:35;2.70;99.90
12967;DHT22;6548;49.996;8.238;2023-03-01T07:51:02;3.00;99.90
12967;DHT22;6548;49.996;8.238;2023-03-01T07:53:29;3.00;99.90
12967;DHT22;6548;49.996;8.238;2023-03-01T07:56:13;3.00;99.90
12967;DHT22;6548;49.996;8.238;2023-03-01T07:58:41;3.10;99.90
12967;DHT22;6548;49.996;8.238;2023-03-01T08:01:09;3.00;99.90
12967;DHT22;6548;49.996;8.238;2023-03-01T08:03:36;3.40;99.90
12967;DHT22;6548;49.996;8.238;2023-03-01T08:06:02;3.60;99.90
12967;DHT22;6548;49.996;8.238;2023-03-01T08:08:29;3.40;99.90
12967;DHT22;6548;49.996;8.238;2023-03-01T08:11:02;3.50;99.90
12967;DHT22;6548;49.996;8.238;2023-03-01T08:13:28;3.10;99.90
12967;DHT22;6548;49.996;8.238;2023-03-01T08:15:54;3.20;99.90
12967;DHT22;6548;49.996;8.238;2023-03-01T08:18:20;3.50;99.90
12967;DHT22;6548;49.996;8.238;2023-03-01T08:20:47;3.70;99.90
12967;DHT22;6548;49.996;8.238;2023-03-01T08:23:13;3.80;99.90
12967;DHT22;6548;49.996;8.238;2023-03-01T08:25:39;3.90;99.90
12967;DHT22;6548;49.996;8.238;2023-03-01T08:28:05;3.80;99.90
12967;DHT22;6548;49.996;8.238;2023-03-01T08:30:31;3.70;99.90
12967;DHT22;6548;49.996;8.238;2023-03-01T08:32:57;3.80;99.90
12967;DHT22;6548;49.996;8.238;2023-03-01T08:35:23;4.00;99.90
12967;DHT22;6548;49.996;8.238;2023-03-01T08:37:49;3.70;99.90
12967;DHT22;6548;49.996;8.238;2023-03-01T08:40:14;3.70;99.90
12967;DHT22;6548;49.996;8.238;2023-03-01T08:42:41;4.10;99.90
12967;DHT22;6548;49.996;8.238;2023-03-01T08:45:09;4.00;99.90
12967;DHT22;6548;49.996;8.238;2023-03-01T08:47:35;4.20;99.90
12967;DHT22;6548;49.996;8.238;2023-03-01T08:50:01;4.20;99.90
12967;DHT22;6548;49.996;8.238;2023-03-01T08:52:27;4.10;99.90
12967;DHT22;6548;49.996;8.238;2023-03-01T08:54:53;4.20;99.90
12967;DHT22;6548;49.996;8.238;2023-03-01T08:57:19;4.40;99.90
12967;DHT22;6548;49.996;8.238;2023-03-01T08:59:44;4.40;99.90
12967;DHT22;6548;49.996;8.238;2023-03-01T09:02:16;4.80;99.90
12967;DHT22;6548;49.996;8.238;2023-03-01T09:04:42;4.80;99.90
12967;DHT22;6548;49.996;8.238;2023-03-01T09:07:09;5.10;99.90
12967;DHT22;6548;49.996;8.238;2023-03-01T09:09:35;5.50;99.90
12967;DHT22;6548;49.996;8.238;2023-03-01T09:12:00;5.60;99.90
12967;DHT22;6548;49.996;8.238;2023-03-01T09:14:26;5.30;99.90
12967;DHT22;6548;49.996;8.238;2023-03-01T09:16:52;4.90;99.90
12967;DHT22;6548;49.996;8.238;2023-03-01T09:19:17;5.00;99.90
12967;DHT22;6548;49.996;8.238;2023-03-01T09:21:43;5.20;99.90
12967;DHT22;6548;49.996;8.238;2023-03-01T09:24:22;5.00;99.90
12967;DHT22;6548;49.996;8.238;2023-03-01T09:26:48;5.10;99.90
12967;DHT22;6548;49.996;8.238;2023-03-01T09:29:15;5.20;99.90
12967;DHT22;6548;49.996;8.238;2023-03-01T09:31:41;5.40;99.90
12967;DHT22;6548;49.996;8.238;2023-03-01T09:34:07;5.50;99.90
12967;DHT22;6548;49.996;8.238;2023-03-01T09:36:33;5.20;99.90
12967;DHT22;6548;49.996;8.238;2023-03-01T09:38:59;5.50;99.90
12967;DHT22;6548;49.996;8.238;2023-03-01T09:46:54;5.50;99.90
12967;DHT22;6548;49.996;8.238;2023-03-01T09:49:28;5.30;99.90
12967;DHT22;6548;49.996;8.238;2023-03-01T09:54:21;5.90;99.90
12967;DHT22;6548;49.996;8.238;2023-03-01T09:56:57;6.00;99.90
12967;DHT22;6548;49.996;8.238;2023-03-01T09:59:30;6.00;99.90
12967;DHT22;6548;49.996;8.238;2023-03-01T10:02:27;6.40;99.90
12967;DHT22;6548;49.996;8.238;2023-03-01T10:05:02;5.80;99.90
12967;DHT22;6548;49.996;8.238;2023-03-01T10:12:50;6.60;99.90
12967;DHT22;6548;49.996;8.238;2023-03-01T10:15:22;6.90;99.90
12967;DHT22;6548;49.996;8.238;2023-03-01T10:17:55;6.60;99.90
12967;DHT22;6548;49.996;8.238;2023-03-01T10:20:46;6.80;99.90
12967;DHT22;6548;49.996;8.238;2023-03-01T10:23:10;6.50;99.90
12967;DHT22;6548;49.996;8.238;2023-03-01T10:30:51;7.00;99.90
12967;DHT22;6548;49.996;8.238;2023-03-01T10:33:27;6.60;99.90
12967;DHT22;6548;49.996;8.238;2023-03-01T10:35:54;7.10;99.90
12967;DHT22;6548;49.996;8.238;2023-03-01T10:38:20;6.60;99.90
12967;DHT22;6548;49.996;8.238;2023-03-01T10:41:04;6.40;99.90
12967;DHT22;6548;49.996;8.238;2023-03-01T10:43:47;7.10;99.90
12967;DHT22;6548;49.996;8.238;2023-03-01T10:46:34;6.60;99.90
12967;DHT22;6548;49.996;8.238;2023-03-01T10:49:16;6.50;99.90
12967;DHT22;6548;49.996;8.238;2023-03-01T10:51:46;6.50;99.90
12967;DHT22;6548;49.996;8.238;2023-03-01T11:04:29;6.50;99.90
12967;DHT22;6548;49.996;8.238;2023-03-01T11:06:59;6.70;99.90
12967;DHT22;6548;49.996;8.238;2023-03-01T11:09:25;6.60;99.90
12967;DHT22;6548;49.996;8.238;2023-03-01T11:11:55;6.60;99.90
12967;DHT22;6548;49.996;8.238;2023-03-01T11:14:26;6.80;99.90
12967;DHT22;6548;49.996;8.238;2023-03-01T11:17:00;6.50;99.90
12967;DHT22;6548;49.996;8.238;2023-03-01T11:19:26;6.60;99.90
12967;DHT22;6548;49.996;8.238;2023-03-01T11:22:03;6.60;99.90
12967;DHT22;6548;49.996;8.238;2023-03-01T11:24:39;6.30;99.90
12967;DHT22;6548;49.996;8.238;2023-03-01T11:27:19;6.40;99.90
12967;DHT22;6548;49.996;8.238;2023-03-01T11:30:38;6.80;99.90
12967;DHT22;6548;49.996;8.238;2023-03-01T11:32:41;6.60;99.90
12967;DHT22;6548;49.996;8.238;2023-03-01T11:44:05;6.50;99.90
12967;DHT22;6548;49.996;8.238;2023-03-01T11:47:03;6.60;99.90
12967;DHT22;6548;49.996;8.238;2023-03-01T11:57:40;7.20;99.90
12967;DHT22;6548;49.996;8.238;2023-03-01T12:03:43;7.40;99.90
12967;DHT22;6548;49.996;8.238;2023-03-01T12:17:09;8.50;99.90
12967;DHT22;6548;49.996;8.238;2023-03-01T12:25:28;9.60;99.90
12967;DHT22;6548;49.996;8.238;2023-03-01T12:28:30;8.70;99.90
12967;DHT22;6548;49.996;8.238;2023-03-01T12:33:43;9.20;99.90
12967;DHT22;6548;49.996;8.238;2023-03-01T12:36:39;9.40;99.90
12967;DHT22;6548;49.996;8.238;2023-03-01T12:42:08;9.40;99.90
12967;DHT22;6548;49.996;8.238;2023-03-01T12:44:58;9.50;99.90
12967;DHT22;6548;49.996;8.238;2023-03-01T12:47:50;9.70;99.90
12967;DHT22;6548;49.996;8.238;2023-03-01T12:50:25;9.60;99.90
12967;DHT22;6548;49.996;8.238;2023-03-01T12:52:57;10.00;99.90
12967;DHT22;6548;49.996;8.238;2023-03-01T12:55:28;10.20;99.90
12967;DHT22;6548;49.996;8.238;2023-03-01T13:01:16;10.10;99.90
12967;DHT22;6548;49.996;8.238;2023-03-01T13:06:59;10.80;99.90
12967;DHT22;6548;49.996;8.238;2023-03-01T13:12:51;9.80;99.90
12967;DHT22;6548;49.996;8.238;2023-03-01T13:17:54;10.40;99.90
12967;DHT22;6548;49.996;8.238;2023-03-01T13:20:23;9.70;99.90
12967;DHT22;6548;49.996;8.238;2023-03-01T13:23:04;10.10;99.90
12967;DHT22;6548;49.996;8.238;2023-03-01T13:25:31;10.40;99.90
12967;DHT22;6548;49.996;8.238;2023-03-01T13:28:36;10.50;99.90
12967;DHT22;6548;49.996;8.238;2023-03-01T13:31:06;10.60;99.90
12967;DHT22;6548;49.996;8.238;2023-03-01T13:33:37;10.80;99.40
12967;DHT22;6548;49.996;8.238;2023-03-01T13:36:05;10.30;99.90
12967;DHT22;6548;49.996;8.238;2023-03-01T13:41:12;10.30;98.90
12967;DHT22;6548;49.996;8.238;2023-03-01T13:43:41;10.10;99.20
12967;DHT22;6548;49.996;8.238;2023-03-01T13:46:20;11.30;98.90
12967;DHT22;6548;49.996;8.238;2023-03-01T13:48:50;10.40;98.40
12967;DHT22;6548;49.996;8.238;2023-03-01T13:51:25;10.40;98.70
12967;DHT22;6548;49.996;8.238;2023-03-01T13:53:56;10.00;98.90
12967;DHT22;6548;49.996;8.238;2023-03-01T13:56:28;10.20;98.70
12967;DHT22;6548;49.996;8.238;2023-03-01T13:59:19;10.40;97.90
12967;DHT22;6548;49.996;8.238;2023-03-01T14:01:52;10.50;98.20
12967;DHT22;6548;49.996;8.238;2023-03-01T14:04:29;11.10;98.90
12967;DHT22;6548;49.996;8.238;2023-03-01T14:07:29;11.20;97.40
12967;DHT22;6548;49.996;8.238;2023-03-01T14:09:57;11.40;98.10
12967;DHT22;6548;49.996;8.238;2023-03-01T14:12:29;11.10;97.50
12967;DHT22;6548;49.996;8.238;2023-03-01T14:15:06;11.00;98.50
12967;DHT22;6548;49.996;8.238;2023-03-01T14:17:48;11.70;97.00
12967;DHT22;6548;49.996;8.238;2023-03-01T14:20:24;11.20;97.50
12967;DHT22;6548;49.996;8.238;2023-03-01T14:22:56;11.10;96.50
12967;DHT22;6548;49.996;8.238;2023-03-01T14:26:07;10.90;97.00
12967;DHT22;6548;49.996;8.238;2023-03-01T14:28:28;11.10;97.10
12967;DHT22;6548;49.996;8.238;2023-03-01T14:30:59;10.50;96.70
12967;DHT22;6548;49.996;8.238;2023-03-01T14:36:10;9.90;97.40
12967;DHT22;6548;49.996;8.238;2023-03-01T14:38:39;10.00;97.30
12967;DHT22;6548;49.996;8.238;2023-03-01T14:43:50;10.00;97.20
12967;DHT22;6548;49.996;8.238;2023-03-01T14:46:20;10.20;97.60
12967;DHT22;6548;49.996;8.238;2023-03-01T14:48:53;10.20;97.20
12967;DHT22;6548;49.996;8.238;2023-03-01T14:51:20;10.40;98.10
12967;DHT22;6548;49.996;8.238;2023-03-01T14:53:45;10.10;97.10
12967;DHT22;6548;49.996;8.238;2023-03-01T14:56:16;9.90;96.90
12967;DHT22;6548;49.996;8.238;2023-03-01T14:58:43;10.00;97.50
12967;DHT22;6548;49.996;8.238;2023-03-01T15:01:14;10.60;96.90
12967;DHT22;6548;49.996;8.238;2023-03-01T15:03:46;10.90;96.90
12967;DHT22;6548;49.996;8.238;2023-03-01T15:06:15;11.10;97.40
12967;DHT22;6548;49.996;8.238;2023-03-01T15:08:45;11.90;95.80
12967;DHT22;6548;49.996;8.238;2023-03-01T15:11:22;12.20;94.80
12967;DHT22;6548;49.996;8.238;2023-03-01T15:13:50;12.50;95.10
12967;DHT22;6548;49.996;8.238;2023-03-01T15:16:29;12.20;94.00
12967;DHT22;6548;49.996;8.238;2023-03-01T15:18:56;11.70;94.60
12967;DHT22;6548;49.996;8.238;2023-03-01T15:21:26;11.50;94.10
12967;DHT22;6548;49.996;8.238;2023-03-01T15:26:35;11.20;94.80
12967;DHT22;6548;49.996;8.238;2023-03-01T15:29:02;10.50;95.50
12967;DHT22;6548;49.996;8.238;2023-03-01T15:31:32;11.20;95.30
12967;DHT22;6548;49.996;8.238;2023-03-01T15:34:24;11.40;94.70
12967;DHT22;6548;49.996;8.238;2023-03-01T15:36:52;11.50;94.80
12967;DHT22;6548;49.996;8.238;2023-03-01T15:42:40;10.80;94.90
12967;DHT22;6548;49.996;8.238;2023-03-01T15:45:19;10.30;94.80
12967;DHT22;6548;49.996;8.238;2023-03-01T15:47:57;9.90;95.00
12967;DHT22;6548;49.996;8.238;2023-03-01T15:50:29;9.90;95.20
12967;DHT22;6548;49.996;8.238;2023-03-01T15:52:55;10.10;95.20
12967;DHT22;6548;49.996;8.238;2023-03-01T15:55:25;10.10;96.30
12967;DHT22;6548;49.996;8.238;2023-03-01T15:58:24;10.00;96.00
12967;DHT22;6548;49.996;8.238;2023-03-01T16:00:51;9.90;95.50
12967;DHT22;6548;49.996;8.238;2023-03-01T16:03:22;9.80;96.00
12967;DHT22;6548;49.996;8.238;2023-03-01T16:05:48;9.90;96.00
12967;DHT22;6548;49.996;8.238;2023-03-01T16:08:15;9.70;95.40
12967;DHT22;6548;49.996;8.238;2023-03-01T16:10:42;9.20;96.20
12967;DHT22;6548;49.996;8.238;2023-03-01T16:13:09;9.30;96.80
12967;DHT22;6548;49.996;8.238;2023-03-01T16:15:35;9.10;96.80
12967;DHT22;6548;49.996;8.238;2023-03-01T16:18:02;8.90;97.00
12967;DHT22;6548;49.996;8.238;2023-03-01T16:20:28;8.90;97.30
12967;DHT22;6548;49.996;8.238;2023-03-01T16:22:59;9.00;97.20
12967;DHT22;6548;49.996;8.238;2023-03-01T16:25:28;8.90;97.40
12967;DHT22;6548;49.996;8.238;2023-03-01T16:27:54;8.70;97.80
12967;DHT22;6548;49.996;8.238;2023-03-01T16:30:22;8.70;97.90
12967;DHT22;6548;49.996;8.238;2023-03-01T16:32:48;8.40;98.00
12967;DHT22;6548;49.996;8.238;2023-03-01T16:35:16;8.10;98.50
12967;DHT22;6548;49.996;8.238;2023-03-01T16:37:42;8.00;99.40
12967;DHT22;6548;49.996;8.238;2023-03-01T16:42:44;7.50;99.80
12967;DHT22;6548;49.996;8.238;2023-03-01T16:45:10;7.30;99.90
12967;DHT22;6548;49.996;8.238;2023-03-01T16:47:35;7.20;99.90
12967;DHT22;6548;49.996;8.238;2023-03-01T16:50:01;7.00;99.90
12967;DHT22;6548;49.996;8.238;2023-03-01T16:52:27;7.30;99.90
12967;DHT22;6548;49.996;8.238;2023-03-01T16:54:53;6.80;99.90
12967;DHT22;6548;49.996;8.238;2023-03-01T16:57:18;6.80;99.90
12967;DHT22;6548;49.996;8.238;2023-03-01T16:59:44;6.70;99.90
12967;DHT22;6548;49.996;8.238;2023-03-01T17:02:13;6.70;99.90
12967;DHT22;6548;49.996;8.238;2023-03-01T17:04:40;6.60;99.90
12967;DHT22;6548;49.996;8.238;2023-03-01T17:07:06;6.50;99.90
12967;DHT22;6548;49.996;8.238;2023-03-01T17:09:36;6.40;99.90
12967;DHT22;6548;49.996;8.238;2023-03-01T17:12:03;6.30;99.90
12967;DHT22;6548;49.996;8.238;2023-03-01T17:14:28;6.30;99.90
12967;DHT22;6548;49.996;8.238;2023-03-01T17:16:54;6.40;99.90
12967;DHT22;6548;49.996;8.238;2023-03-01T17:19:20;5.60;99.90
12967;DHT22;6548;49.996;8.238;2023-03-01T17:21:46;5.80;99.90
12967;DHT22;6548;49.996;8.238;2023-03-01T17:24:12;5.60;99.90
12967;DHT22;6548;49.996;8.238;2023-03-01T17:26:38;5.80;99.90
12967;DHT22;6548;49.996;8.238;2023-03-01T17:29:05;5.80;99.90
12967;DHT22;6548;49.996;8.238;2023-03-01T17:31:32;5.70;99.90
12967;DHT22;6548;49.996;8.238;2023-03-01T17:33:57;5.70;99.90
12967;DHT22;6548;49.996;8.238;2023-03-01T17:36:23;5.40;99.90
12967;DHT22;6548;49.996;8.238;2023-03-01T17:38:49;7.10;99.90
12967;DHT22;6548;49.996;8.238;2023-03-01T17:41:15;5.30;99.90
12967;DHT22;6548;49.996;8.238;2023-03-01T17:43:46;6.60;99.90
12967;DHT22;6548;49.996;8.238;2023-03-01T17:46:12;5.50;99.90
12967;DHT22;6548;49.996;8.238;2023-03-01T17:48:37;5.40;99.90
12967;DHT22;6548;49.996;8.238;2023-03-01T17:51:08;6.10;99.90
12967;DHT22;6548;49.996;8.238;2023-03-01T17:53:34;5.40;99.90
12967;DHT22;6548;49.996;8.238;2023-03-01T17:56:01;5.30;99.90
12967;DHT22;6548;49.996;8.238;2023-03-01T17:58:27;5.20;99.90
12967;DHT22;6548;49.996;8.238;2023-03-01T18:00:53;5.10;99.90
12967;DHT22;6548;49.996;8.238;2023-03-01T18:03:19;5.10;99.90